Time;durP1;ratioP1;P1;durP2;ratioP2;P2;SDS_P1;SDS_P2;PMS_P1;PMS_P2;Temp;Humidity;BMP_temperature;BMP_pressure;BME280_temperature;BME280_humidity;BME280_pressure;Samples;Min_cycle;Max_cycle;Signal;HPM_P1;HPM_P2
2021/10/21 00:01:23;;;;;;;22.00;19.77;;;;;;;25.58;21.87;95142.19;4954371;29;20051;-51
2021/10/21 00:03:50;;;;;;;21.85;19.55;;;;;;;25.45;22.19;95133.59;4954220;29;20050;-56
2021/10/21 00:06:18;;;;;;;21.67;19.35;;;;;;;25.36;22.20;95135.78;4953011;29;20365;-55
2021/10/21 00:08:45;;;;;;;21.27;19.27;;;;;;;25.83;22.39;95134.50;4954345;29;20051;-52
2021/10/21 00:11:12;;;;;;;21.17;19.02;;;;;;;25.72;22.24;95131.66;4954264;29;20389;-58
2021/10/21 00:13:39;;;;;;;20.60;18.50;;;;;;;25.84;22.18;95134.13;4954338;29;20047;-51
2021/10/21 00:16:06;;;;;;;20.73;18.65;;;;;;;25.77;21.86;95123.34;4954245;29;20051;-53
2021/10/21 00:18:33;;;;;;;20.80;18.42;;;;;;;25.51;22.06;95126.81;4954170;29;20369;-55
2021/10/21 00:21:00;;;;;;;21.35;19.25;;;;;;;25.71;22.16;95122.88;4954550;29;20418;-57
2021/10/21 00:23:27;;;;;;;21.17;19.00;;;;;;;25.83;22.04;95126.47;4953667;28;20054;-54
2021/10/21 00:25:55;;;;;;;20.40;18.48;;;;;;;25.67;21.95;95119.38;4952800;29;20066;-60
2021/10/21 00:28:22;;;;;;;21.20;19.15;;;;;;;25.48;21.98;95122.16;4954301;29;20047;-50
2021/10/21 00:30:49;;;;;;;22.40;20.17;;;;;;;25.48;22.28;95122.16;4954359;29;20054;-52
2021/10/21 00:33:16;;;;;;;22.63;20.33;;;;;;;25.41;22.38;95119.41;4954234;29;20051;-52
2021/10/21 00:35:43;;;;;;;22.98;20.75;;;;;;;25.65;22.03;95116.25;4953742;29;20361;-54
2021/10/21 00:38:10;;;;;;;22.23;19.92;;;;;;;25.70;21.88;95113.28;4954130;29;20047;-52
2021/10/21 00:40:37;;;;;;;24.17;21.58;;;;;;;25.48;22.49;95116.81;4945309;29;20048;-56
2021/10/21 00:43:04;;;;;;;23.77;21.30;;;;;;;25.63;22.54;95107.84;4935399;29;20354;-54
2021/10/21 00:45:31;;;;;;;22.63;20.35;;;;;;;25.78;21.81;95104.22;4936666;29;20048;-53
2021/10/21 00:47:58;;;;;;;22.85;20.30;;;;;;;25.59;22.13;95104.34;4953980;29;20051;-55
2021/10/21 00:50:25;;;;;;;22.23;19.88;;;;;;;25.31;22.41;95103.97;4948482;29;20058;-53
2021/10/21 00:52:53;;;;;;;22.55;20.15;;;;;;;25.45;22.58;95106.81;4935449;29;20043;-56
2021/10/21 00:55:21;;;;;;;22.83;19.92;;;;;;;25.45;22.36;95102.25;4961410;28;20066;-61
2021/10/21 00:57:49;;;;;;;22.75;20.38;;;;;;;25.30;22.29;95099.75;4953902;29;20043;-55
2021/10/21 01:00:16;;;;;;;23.17;20.77;;;;;;;25.09;22.72;95105.59;4954341;29;20148;-55
2021/10/21 01:02:43;;;;;;;22.77;20.00;;;;;;;25.34;22.02;95093.31;4956806;28;20089;-51
2021/10/21 01:05:10;;;;;;;22.05;19.85;;;;;;;25.35;22.07;95097.53;4957452;29;20466;-52
2021/10/21 01:07:38;;;;;;;21.13;18.95;;;;;;;25.42;22.33;95088.81;4956814;29;20058;-53
2021/10/21 01:10:07;;;;;;;21.65;19.50;;;;;;;25.53;22.26;95084.38;4955428;29;20058;-52
2021/10/21 01:12:36;;;;;;;21.08;19.08;;;;;;;25.34;22.26;95077.25;4956240;29;20522;-54
2021/10/21 01:15:17;;;;;;;21.83;19.52;;;;;;;25.41;22.30;95074.66;4957226;29;20051;-51
2021/10/21 01:17:44;;;;;;;19.92;17.92;;;;;;;25.43;22.12;95069.72;4956957;29;20050;-52
2021/10/21 01:20:11;;;;;;;20.63;18.58;;;;;;;25.26;22.18;95072.19;4956982;29;20047;-49
2021/10/21 01:22:39;;;;;;;20.83;18.85;;;;;;;25.10;22.22;95075.78;4957271;29;20054;-52
2021/10/21 01:25:06;;;;;;;19.60;17.70;;;;;;;24.98;22.25;95073.28;4956294;28;20382;-51
2021/10/21 01:27:33;;;;;;;21.80;19.58;;;;;;;25.21;22.69;95076.69;4956814;29;20039;-51
2021/10/21 01:30:01;;;;;;;20.27;18.25;;;;;;;25.23;22.02;95084.38;4956931;29;20465;-54
2021/10/21 01:32:34;;;;;;;21.98;19.13;;;;;;;25.14;22.15;95065.91;4956394;29;20062;-52
2021/10/21 01:35:05;;;;;;;21.92;19.73;;;;;;;25.12;22.15;95073.53;4957085;29;20056;-54
2021/10/21 01:37:32;;;;;;;22.25;19.90;;;;;;;25.00;22.60;95071.06;4956610;29;20074;-54
2021/10/21 01:39:59;;;;;;;22.98;20.67;;;;;;;25.49;22.52;95062.91;4956658;29;20054;-55
2021/10/21 01:42:28;;;;;;;22.98;20.77;;;;;;;25.68;22.78;95067.38;4957127;29;20047;-55
2021/10/21 01:44:55;;;;;;;22.92;20.30;;;;;;;25.56;22.12;95064.91;4956926;28;20051;-49
2021/10/21 01:47:22;;;;;;;21.98;19.73;;;;;;;25.55;22.00;95068.72;4956639;29;20054;-54
2021/10/21 01:49:49;;;;;;;21.15;19.00;;;;;;;25.32;21.79;95060.03;4956517;29;22070;-53
2021/10/21 01:52:16;;;;;;;21.70;19.58;;;;;;;25.12;22.18;95056.72;4955553;29;20051;-55
2021/10/21 01:54:43;;;;;;;21.52;19.45;;;;;;;25.26;22.22;95061.50;4955967;28;20067;-52
2021/10/21 01:57:10;;;;;;;23.10;20.58;;;;;;;25.18;22.25;95056.03;4956531;29;20070;-52
2021/10/21 01:59:37;;;;;;;22.42;20.25;;;;;;;25.57;22.09;95057.66;4956205;29;20043;-53
2021/10/21 02:02:04;;;;;;;22.13;19.85;;;;;;;25.34;22.37;95052.41;4956436;29;20054;-50
2021/10/21 02:04:32;;;;;;;21.55;19.50;;;;;;;25.41;21.86;95047.13;4956361;29;20062;-55
2021/10/21 02:06:59;;;;;;;22.13;19.92;;;;;;;25.34;21.80;95049.72;4955373;29;20106;-54
2021/10/21 02:09:26;;;;;;;22.73;20.52;;;;;;;25.26;21.94;95045.44;4955358;29;20069;-56
2021/10/21 02:11:53;;;;;;;22.92;20.83;;;;;;;25.13;22.28;95032.28;4955862;29;20058;-53
2021/10/21 02:14:20;;;;;;;22.08;19.60;;;;;;;25.05;22.08;95056.63;4955709;28;20432;-52
2021/10/21 02:16:47;;;;;;;22.50;20.27;;;;;;;25.19;22.11;95041.50;4956490;29;20055;-52
2021/10/21 02:19:14;;;;;;;22.38;20.08;;;;;;;25.31;21.81;95047.78;4955958;29;20043;-53
2021/10/21 02:21:41;;;;;;;22.98;20.60;;;;;;;25.13;21.73;95040.28;4955863;29;20051;-55
2021/10/21 02:24:08;;;;;;;27.00;23.80;;;;;;;24.67;22.40;95046.84;4955433;28;20051;-57
2021/10/21 02:26:35;;;;;;;28.15;25.30;;;;;;;25.02;22.08;95036.72;4956001;29;20048;-51
2021/10/21 02:29:02;;;;;;;27.08;24.30;;;;;;;25.05;22.18;95045.91;4955863;29;20477;-55
2021/10/21 02:31:29;;;;;;;25.90;23.30;;;;;;;25.08;22.54;95045.19;4955185;29;20058;-52
2021/10/21 02:33:56;;;;;;;26.40;23.73;;;;;;;25.12;21.85;95049.44;4955780;29;20070;-49
2021/10/21 02:36:24;;;;;;;26.08;23.58;;;;;;;25.11;22.08;95034.53;4956045;29;20066;-59
2021/10/21 02:38:51;;;;;;;27.25;24.35;;;;;;;25.08;22.26;95035.25;4955534;29;20047;-52
2021/10/21 02:41:18;;;;;;;25.27;22.83;;;;;;;25.27;21.94;95030.94;4955504;29;20047;-51
2021/10/21 02:43:45;;;;;;;25.67;23.10;;;;;;;25.25;21.76;95035.88;4955426;29;20058;-51
2021/10/21 02:46:13;;;;;;;25.02;22.48;;;;;;;25.46;22.56;95033.44;4955737;29;20047;-49
2021/10/21 02:48:40;;;;;;;25.30;22.98;;;;;;;25.35;22.13;95027.19;4955329;29;20055;-54
2021/10/21 02:51:07;;;;;;;25.90;23.40;;;;;;;24.98;21.85;95040.41;4955462;29;20072;-49
2021/10/21 02:53:34;;;;;;;26.67;24.05;;;;;;;25.11;21.83;95028.41;4954704;28;20058;-54
2021/10/21 02:56:01;;;;;;;27.27;24.52;;;;;;;24.87;21.94;95032.25;4955313;29;20377;-52
2021/10/21 02:58:28;;;;;;;28.42;25.55;;;;;;;24.99;21.85;95025.97;4955298;29;20043;-54
2021/10/21 03:00:56;;;;;;;27.15;24.25;;;;;;;25.04;21.67;95018.41;4955261;29;20046;-49
2021/10/21 03:03:23;;;;;;;27.40;24.42;;;;;;;24.78;22.00;95015.72;4955449;29;20050;-49
2021/10/21 03:05:50;;;;;;;26.45;23.70;;;;;;;24.91;21.50;95022.38;4955314;29;20051;-53
2021/10/21 03:08:17;;;;;;;27.02;24.02;;;;;;;24.94;21.82;95013.63;4955239;29;20489;-52
2021/10/21 03:10:45;;;;;;;26.20;23.65;;;;;;;24.75;21.88;95021.78;4955156;29;20051;-51
2021/10/21 03:13:12;;;;;;;25.83;23.27;;;;;;;24.81;21.83;95015.00;4947582;29;20052;-52
2021/10/21 03:15:39;;;;;;;24.80;22.40;;;;;;;24.92;22.05;95005.22;4936064;29;20366;-52
2021/10/21 03:18:06;;;;;;;25.58;23.00;;;;;;;24.90;21.87;95023.53;4936875;29;20058;-54
2021/10/21 03:20:35;;;;;;;24.63;22.10;;;;;;;24.89;21.99;95019.31;4954949;29;20055;-53
2021/10/21 03:23:02;;;;;;;25.80;22.58;;;;;;;25.23;21.94;95008.69;4954845;29;20058;-50
2021/10/21 03:25:30;;;;;;;24.85;22.55;;;;;;;25.32;21.81;95011.88;4953502;28;20050;-51
2021/10/21 03:27:58;;;;;;;23.52;21.05;;;;;;;25.28;21.73;95016.41;4943020;29;20051;-49
2021/10/21 03:30:25;;;;;;;24.02;21.63;;;;;;;25.06;21.51;95010.78;4954718;28;20457;-52
2021/10/21 03:32:53;;;;;;;22.95;20.73;;;;;;;25.10;21.39;95011.59;4954969;29;20047;-48
2021/10/21 03:35:20;;;;;;;24.88;22.33;;;;;;;24.67;22.11;95004.09;4954810;29;20061;-52
2021/10/21 03:37:47;;;;;;;24.48;21.33;;;;;;;24.65;22.10;95007.13;4954648;29;20365;-51
2021/10/21 03:40:15;;;;;;;24.83;22.05;;;;;;;24.97;21.97;95007.56;4954406;29;20055;-53
2021/10/21 03:42:42;;;;;;;23.60;21.20;;;;;;;24.89;22.05;95005.94;4954582;29;20093;-55
2021/10/21 03:45:09;;;;;;;24.15;21.65;;;;;;;24.91;22.07;94993.75;4954972;29;20054;-50
2021/10/21 03:47:38;;;;;;;24.15;21.65;;;;;;;24.76;22.32;95002.72;4954520;29;20061;-52
2021/10/21 03:50:06;;;;;;;23.60;21.25;;;;;;;24.99;21.95;94991.97;4953955;29;20055;-54
2021/10/21 03:52:33;;;;;;;23.73;21.38;;;;;;;24.96;21.70;94989.97;4954325;29;20043;-49
2021/10/21 03:55:00;;;;;;;23.48;21.08;;;;;;;24.96;21.42;94989.97;4954005;28;20063;-51
2021/10/21 03:57:27;;;;;;;22.63;20.27;;;;;;;25.10;21.93;94989.44;4954034;29;20051;-56
2021/10/21 03:59:55;;;;;;;24.02;21.45;;;;;;;24.98;21.59;94981.59;4954224;29;20053;-52
2021/10/21 04:02:22;;;;;;;23.02;20.92;;;;;;;25.14;21.57;94985.66;4954294;29;20078;-52
2021/10/21 04:04:49;;;;;;;25.33;22.50;;;;;;;24.95;21.63;94983.09;4954361;29;20077;-50
2021/10/21 04:07:16;;;;;;;25.30;21.60;;;;;;;24.59;22.62;94984.50;4954245;29;20485;-55
2021/10/21 04:09:43;;;;;;;26.15;22.35;;;;;;;24.92;21.70;94979.22;4949638;29;20050;-52
2021/10/21 04:12:10;;;;;;;23.83;20.88;;;;;;;24.92;21.81;94976.56;4954214;29;20051;-51
2021/10/21 04:14:37;;;;;;;25.67;23.08;;;;;;;24.80;21.68;94976.03;4954300;29;20078;-51
2021/10/21 04:17:04;;;;;;;25.42;22.73;;;;;;;24.76;21.91;94967.19;4954398;29;20059;-51
2021/10/21 04:19:31;;;;;;;22.48;19.40;;;;;;;25.25;22.50;94966.31;4950666;29;20047;-51
2021/10/21 04:22:01;;;;;;;19.70;17.60;;;;;;;27.74;20.87;94966.16;4956193;28;20062;-55
2021/10/21 04:24:28;;;;;;;19.27;17.02;;;;;;;28.75;19.23;94957.72;4945392;28;20537;-52
2021/10/21 04:26:55;;;;;;;17.25;15.48;;;;;;;30.11;18.76;94962.50;4937430;29;20047;-51
2021/10/21 04:29:22;;;;;;;15.60;14.00;;;;;;;30.03;19.13;94954.47;4943968;29;20055;-50
2021/10/21 04:31:50;;;;;;;14.65;13.15;;;;;;;30.41;19.27;94956.47;4953022;29;20477;-52
2021/10/21 04:34:17;;;;;;;17.85;14.07;;;;;;;30.54;19.26;94958.28;4934891;29;20059;-71
2021/10/21 04:36:44;;;;;;;15.75;14.10;;;;;;;30.86;19.01;94952.59;4935409;29;20379;-61
2021/10/21 04:39:11;;;;;;;20.88;18.77;;;;;;;31.71;16.48;94956.22;4939993;29;20048;-50
2021/10/21 04:41:39;;;;;;;21.38;19.10;;;;;;;29.40;17.24;94953.63;4950346;29;20349;-57
2021/10/21 04:44:06;;;;;;;20.40;18.40;;;;;;;27.58;19.62;94958.41;4953059;29;20052;-52
2021/10/21 04:46:33;;;;;;;22.73;18.73;;;;;;;27.24;19.68;94957.16;4940035;29;20454;-54
2021/10/21 04:49:00;;;;;;;22.30;18.33;;;;;;;27.43;20.45;94956.84;4952003;29;20059;-51
2021/10/21 04:51:27;;;;;;;25.38;18.40;;;;;;;27.69;20.26;94952.34;4956560;29;20073;-51
2021/10/21 04:53:54;;;;;;;22.13;18.70;;;;;;;28.17;19.37;94958.91;4947731;28;20124;-53
2021/10/21 04:56:21;;;;;;;23.58;17.65;;;;;;;29.39;18.65;94951.34;4949139;29;20454;-49
2021/10/21 04:58:48;;;;;;;19.33;17.42;;;;;;;28.63;18.76;94958.13;4942100;29;20055;-54
2021/10/21 05:01:15;;;;;;;23.50;18.25;;;;;;;28.72;18.57;94963.09;4957711;29;20058;-51
2021/10/21 05:03:42;;;;;;;22.88;17.95;;;;;;;28.88;18.23;94960.00;4956892;29;20047;-48
2021/10/21 05:06:10;;;;;;;21.15;18.80;;;;;;;28.93;18.29;94956.94;4956629;29;20047;-51
2021/10/21 05:08:37;;;;;;;20.17;18.17;;;;;;;28.86;18.48;94953.09;4957201;29;20051;-53
2021/10/21 05:11:04;;;;;;;21.42;18.73;;;;;;;29.15;17.89;94953.00;4956872;29;20058;-53
2021/10/21 05:13:32;;;;;;;31.52;21.70;;;;;;;29.26;17.93;94953.72;4957432;29;20043;-52
2021/10/21 05:15:59;;;;;;;40.50;28.88;;;;;;;29.11;17.98;94949.53;4957285;29;20050;-54
2021/10/21 05:18:26;;;;;;;33.05;26.00;;;;;;;29.10;18.36;94951.47;4957376;29;20047;-56
2021/10/21 05:20:54;;;;;;;30.95;24.60;;;;;;;29.08;18.12;94947.63;4956792;29;20053;-54
2021/10/21 05:23:21;;;;;;;35.17;25.45;;;;;;;29.24;17.97;94945.28;4956920;29;20051;-53
2021/10/21 05:25:48;;;;;;;34.67;25.65;;;;;;;29.30;18.11;94949.09;4956658;28;20496;-51
2021/10/21 05:28:15;;;;;;;36.05;27.15;;;;;;;29.02;18.45;94944.59;4957046;29;20047;-53
2021/10/21 05:30:42;;;;;;;35.28;26.95;;;;;;;29.15;18.18;94953.00;4956458;29;20047;-51
2021/10/21 05:33:09;;;;;;;34.80;28.02;;;;;;;29.12;18.46;94943.75;4956863;29;20054;-51
2021/10/21 05:35:36;;;;;;;37.95;29.42;;;;;;;29.24;18.19;94949.88;4956902;29;20042;-52
2021/10/21 05:38:04;;;;;;;43.08;32.80;;;;;;;29.20;18.44;94949.13;4956669;29;20051;-51
2021/10/21 05:40:31;;;;;;;46.22;33.05;;;;;;;29.33;18.43;94942.91;4956425;29;20047;-52
2021/10/21 05:42:58;;;;;;;42.05;31.35;;;;;;;29.77;18.13;94939.63;4956814;29;20051;-53
2021/10/21 05:45:25;;;;;;;41.78;30.20;;;;;;;30.21;17.97;94942.78;4956810;29;20058;-52
2021/10/21 05:47:52;;;;;;;40.17;29.80;;;;;;;29.94;18.17;94942.59;4946702;29;20439;-54
2021/10/21 05:50:19;;;;;;;37.97;30.85;;;;;;;29.79;18.35;94936.53;4951409;29;20382;-52
2021/10/21 05:52:46;;;;;;;37.05;29.05;;;;;;;29.69;18.55;94935.44;4956450;29;20047;-54
2021/10/21 05:55:13;;;;;;;33.90;28.02;;;;;;;30.17;17.80;94933.94;4955772;28;20066;-52
2021/10/21 05:57:41;;;;;;;31.88;28.50;;;;;;;30.06;18.01;94932.13;4956661;29;20438;-55
2021/10/21 06:00:09;;;;;;;34.20;27.58;;;;;;;30.20;18.14;94933.19;4956489;29;20054;-52
2021/10/21 06:02:39;;;;;;;37.28;27.63;;;;;;;30.25;17.67;94932.75;4956187;29;20437;-52
2021/10/21 06:05:06;;;;;;;33.45;29.02;;;;;;;30.52;17.74;94930.19;4956466;29;20382;-52
2021/10/21 06:07:33;;;;;;;34.88;31.13;;;;;;;30.59;17.82;94930.88;4956253;29;20446;-52
2021/10/21 06:10:00;;;;;;;32.03;28.45;;;;;;;30.68;17.52;94931.19;4955885;29;20055;-52
2021/10/21 06:12:27;;;;;;;31.92;28.55;;;;;;;30.79;17.37;94931.09;4955881;29;20058;-51
2021/10/21 06:14:55;;;;;;;30.73;27.08;;;;;;;30.99;17.36;94940.13;4955859;29;20051;-52
2021/10/21 06:17:24;;;;;;;34.90;30.75;;;;;;;31.07;17.42;94924.59;4956356;29;20049;-52
2021/10/21 06:19:52;;;;;;;30.63;25.60;;;;;;;32.33;16.72;94936.00;4952548;29;20048;-55
2021/10/21 06:22:19;;;;;;;25.80;22.00;;;;;;;34.06;15.65;94930.22;4937795;29;20051;-53
2021/10/21 06:24:47;;;;;;;32.53;28.70;;;;;;;32.61;16.52;94928.56;4947246;28;20489;-53
2021/10/21 06:27:14;;;;;;;33.90;30.23;;;;;;;32.33;16.64;94925.16;4955988;29;20469;-53
2021/10/21 06:29:41;;;;;;;31.05;27.98;;;;;;;32.24;16.34;94924.13;4955533;29;20059;-53
2021/10/21 06:32:09;;;;;;;32.47;29.08;;;;;;;32.17;16.69;94916.91;4955740;29;20051;-52
2021/10/21 06:34:36;;;;;;;33.55;29.92;;;;;;;32.06;16.56;94922.50;4948112;29;20366;-53
2021/10/21 06:37:07;;;;;;;33.47;30.20;;;;;;;32.42;16.32;94921.91;4936892;29;20475;-53
2021/10/21 06:39:34;;;;;;;34.67;29.77;;;;;;;32.28;16.46;94933.75;4942927;29;20047;-52
2021/10/21 06:42:01;;;;;;;29.52;26.58;;;;;;;32.47;16.43;94930.31;4955692;29;20066;-52
2021/10/21 06:44:29;;;;;;;28.77;25.95;;;;;;;32.54;15.96;94917.88;4955207;29;20047;-53
2021/10/21 06:46:56;;;;;;;31.25;26.05;;;;;;;32.51;16.01;94931.00;4956070;29;20047;-54
2021/10/21 06:49:23;;;;;;;31.85;26.33;;;;;;;32.75;16.00;94922.88;4955529;29;20062;-54
2021/10/21 06:51:50;;;;;;;30.10;26.88;;;;;;;32.90;16.04;94923.41;4955369;29;20466;-52
2021/10/21 06:54:18;;;;;;;29.50;26.50;;;;;;;32.90;16.02;94920.69;4954865;28;20065;-52
2021/10/21 06:56:45;;;;;;;30.00;27.00;;;;;;;33.20;15.30;94914.28;4955560;29;20054;-50
2021/10/21 06:59:12;;;;;;;55.63;50.00;;;;;;;33.33;15.44;94929.53;4955066;28;20051;-54
2021/10/21 07:01:41;;;;;;;56.85;51.13;;;;;;;33.52;15.36;94917.09;4955096;29;20054;-53
2021/10/21 07:04:08;;;;;;;56.90;50.92;;;;;;;33.50;15.10;94924.13;4955344;29;20050;-54
2021/10/21 07:06:35;;;;;;;55.70;49.88;;;;;;;33.59;15.39;94922.38;4955460;29;20062;-55
2021/10/21 07:09:03;;;;;;;56.10;50.40;;;;;;;33.70;15.12;94920.19;4954944;29;20053;-57
2021/10/21 07:11:31;;;;;;;55.97;49.92;;;;;;;33.82;15.04;94920.69;4949662;29;20051;-58
2021/10/21 07:13:58;;;;;;;55.20;49.72;;;;;;;34.19;14.83;94917.50;4954991;29;20066;-58
2021/10/21 07:16:25;;;;;;;52.67;47.35;;;;;;;34.15;14.88;94916.84;4955129;29;20054;-54
2021/10/21 07:18:52;;;;;;;49.08;44.28;;;;;;;34.46;14.60;94913.78;4955064;29;20051;-52
2021/10/21 07:21:19;;;;;;;46.92;42.65;;;;;;;34.72;14.49;94899.13;4940556;29;20051;-58
2021/10/21 07:23:47;;;;;;;44.05;40.00;;;;;;;34.72;14.33;94915.41;4954387;28;20066;-52
2021/10/21 07:26:14;;;;;;;75.15;67.03;;;;;;;35.08;14.11;94911.72;4955105;29;20343;-53
2021/10/21 07:28:42;;;;;;;83.18;68.85;;;;;;;35.20;14.29;94911.78;4954963;29;20051;-53
2021/10/21 07:31:14;;;;;;;47.22;43.13;;;;;;;35.21;13.98;94907.09;4954328;29;20055;-51
2021/10/21 07:33:41;;;;;;;46.75;42.75;;;;;;;34.95;14.34;94898.13;4954646;29;20055;-53
2021/10/21 07:36:08;;;;;;;30.85;27.65;;;;;;;35.41;14.11;94898.78;4954977;29;20051;-52
2021/10/21 07:38:36;;;;;;;33.45;29.98;;;;;;;35.32;13.81;94904.81;4950659;29;20055;-52
2021/10/21 07:41:03;;;;;;;36.47;32.88;;;;;;;35.34;14.06;94893.53;4951834;29;20046;-52
2021/10/21 07:43:31;;;;;;;36.80;32.90;;;;;;;35.37;14.24;94893.44;4954946;28;20083;-53
2021/10/21 07:45:58;;;;;;;37.65;34.05;;;;;;;35.20;14.13;94894.72;4954760;29;20054;-53
2021/10/21 07:48:25;;;;;;;36.67;33.08;;;;;;;34.59;14.21;94884.72;4954829;29;20112;-53
2021/10/21 07:50:52;;;;;;;37.70;33.85;;;;;;;34.03;14.96;94884.97;4954068;29;20047;-53
2021/10/21 07:53:19;;;;;;;34.67;31.30;;;;;;;33.63;15.35;94882.41;4941829;29;20094;-52
2021/10/21 07:55:46;;;;;;;33.53;30.13;;;;;;;33.60;15.83;94885.97;4953632;28;20066;-53
2021/10/21 07:58:13;;;;;;;33.05;28.92;;;;;;;33.89;15.37;94893.47;4953241;29;20054;-54
2021/10/21 08:00:41;;;;;;;31.58;28.48;;;;;;;33.78;15.50;94876.63;4947380;29;20043;-53
2021/10/21 08:03:08;;;;;;;32.30;29.00;;;;;;;33.84;15.60;94880.41;4954010;29;20043;-52
2021/10/21 08:05:35;;;;;;;31.73;28.20;;;;;;;34.07;15.25;94871.31;4954559;29;20438;-54
2021/10/21 08:08:04;;;;;;;31.08;27.98;;;;;;;33.95;15.40;94870.06;4954530;29;20386;-52
2021/10/21 08:10:32;;;;;;;29.75;26.75;;;;;;;34.10;15.30;94860.41;4936298;29;20058;-52
2021/10/21 08:13:02;;;;;;;30.30;26.20;;;;;;;33.96;15.45;94858.78;4954222;29;20055;-54
2021/10/21 08:15:29;;;;;;;29.88;26.73;;;;;;;34.10;15.20;94860.41;4958553;29;20051;-57
2021/10/21 08:17:57;;;;;;;31.10;27.95;;;;;;;34.03;15.08;94855.91;4958382;29;20047;-54
2021/10/21 08:20:26;;;;;;;30.75;27.58;;;;;;;34.30;14.88;94863.72;4958471;29;20451;-55
2021/10/21 08:22:54;;;;;;;30.25;26.98;;;;;;;34.19;15.00;94865.22;4957787;29;20051;-48
2021/10/21 08:25:25;;;;;;;30.35;27.35;;;;;;;34.56;14.62;94863.88;4957595;28;20074;-51
2021/10/21 08:27:52;;;;;;;33.03;28.17;;;;;;;34.26;14.99;94851.47;4958135;29;20047;-51
2021/10/21 08:30:23;;;;;;;32.75;29.30;;;;;;;34.42;14.71;94853.41;4958102;29;20047;-55
2021/10/21 08:32:51;;;;;;;30.73;27.30;;;;;;;34.36;15.04;94847.75;4957614;29;20058;-54
2021/10/21 08:35:18;;;;;;;31.23;26.50;;;;;;;34.25;15.16;94842.56;4958208;29;20054;-50
2021/10/21 08:37:45;;;;;;;27.55;24.67;;;;;;;34.36;14.76;94853.16;4958065;29;20054;-52
2021/10/21 08:40:14;;;;;;;29.13;26.30;;;;;;;34.33;14.73;94852.03;4957043;29;20054;-50
2021/10/21 08:42:42;;;;;;;28.85;26.00;;;;;;;34.24;14.92;94846.47;4957717;29;20058;-50
2021/10/21 08:45:09;;;;;;;27.33;24.73;;;;;;;34.23;14.92;94847.66;4957977;29;20055;-53
2021/10/21 08:47:43;;;;;;;26.65;22.95;;;;;;;34.50;14.74;94843.88;4957876;29;20051;-52
2021/10/21 08:50:12;;;;;;;26.02;23.48;;;;;;;34.48;14.77;94836.16;4957436;29;20047;-58
2021/10/21 08:52:39;;;;;;;26.30;23.80;;;;;;;34.63;14.66;94829.16;4957451;29;20382;-51
2021/10/21 08:55:07;;;;;;;26.83;23.65;;;;;;;34.58;14.85;94831.63;4957384;28;20363;-52
2021/10/21 08:57:35;;;;;;;25.52;22.92;;;;;;;34.67;14.88;94826.34;4957845;29;20050;-54
2021/10/21 09:00:03;;;;;;;25.05;22.40;;;;;;;34.85;14.70;94826.63;4954603;29;20043;-49
2021/10/21 09:05:30;;;;;;;24.02;21.67;;;;;;;34.91;14.37;94830.34;4958130;28;20050;-57
2021/10/21 09:08:07;;;;;;;25.02;21.63;;;;;;;34.72;14.61;94825.81;4940597;29;20062;-51
2021/10/21 09:10:59;;;;;;;22.70;20.48;;;;;;;35.00;14.31;94812.63;4957262;29;20054;-51
2021/10/21 09:13:29;;;;;;;25.98;21.30;;;;;;;34.86;14.64;94802.94;4956996;29;20047;-52
2021/10/21 09:15:59;;;;;;;23.73;20.37;;;;;;;35.19;14.51;94801.56;4957560;29;20047;-52
2021/10/21 09:18:28;;;;;;;23.52;20.70;;;;;;;35.13;14.43;94791.66;4957290;29;20059;-54
2021/10/21 09:20:55;;;;;;;22.52;20.08;;;;;;;35.04;14.41;94791.56;4955962;29;20043;-49
2021/10/21 09:23:27;;;;;;;22.20;20.05;;;;;;;35.02;14.49;94785.81;4956594;28;20474;-57
2021/10/21 09:25:54;;;;;;;21.00;18.90;;;;;;;35.00;14.56;94782.75;4957225;29;20062;-48
2021/10/21 09:28:26;;;;;;;19.65;17.77;;;;;;;34.93;14.26;94781.78;4955897;29;20059;-54
2021/10/21 09:30:56;;;;;;;20.90;18.85;;;;;;;34.97;14.21;94778.19;4956801;29;20051;-54
2021/10/21 09:33:25;;;;;;;20.08;18.13;;;;;;;35.32;14.10;94782.53;4955623;29;20043;-50
2021/10/21 09:35:58;;;;;;;20.95;18.65;;;;;;;35.21;14.72;94788.31;4956862;29;20047;-54
2021/10/21 09:38:29;;;;;;;20.05;18.00;;;;;;;35.20;14.64;94775.16;4956979;29;20047;-55
2021/10/21 09:41:04;;;;;;;;;;;;;;;35.26;14.23;94768.00;4956991;29;20075;-51
2021/10/21 09:43:36;;;;;;;19.67;17.73;;;;;;;35.02;14.44;94761.34;4956931;28;19918;-57
2021/10/21 09:46:03;;;;;;;23.33;18.45;;;;;;;35.51;14.53;94765.28;4956534;29;20366;-55
2021/10/21 09:48:30;;;;;;;20.73;18.55;;;;;;;35.32;14.73;94768.19;4956902;29;20046;-53
2021/10/21 09:50:57;;;;;;;20.27;18.48;;;;;;;35.33;14.10;94767.75;4956484;29;20059;-50
2021/10/21 09:53:31;;;;;;;19.23;17.30;;;;;;;35.45;14.05;94758.88;4955860;28;20055;-57
2021/10/21 09:56:02;;;;;;;20.17;17.95;;;;;;;35.13;14.25;94749.00;4956677;29;20370;-50
2021/10/21 09:58:40;;;;;;;20.90;18.73;;;;;;;34.98;14.61;94738.97;4957195;29;20054;-48
2021/10/21 10:01:11;;;;;;;20.02;17.08;;;;;;;35.46;14.62;94743.31;4956635;29;20039;-54
2021/10/21 10:03:39;;;;;;;;;;;;;;;35.40;14.07;94743.13;4956110;29;20042;-51
2021/10/21 10:06:06;;;;;;;18.73;17.00;;;;;;;35.59;14.21;94730.44;4943484;29;19918;-54
2021/10/21 10:08:34;;;;;;;18.73;16.83;;;;;;;35.93;14.39;94732.47;4937928;29;20044;-49
2021/10/21 10:11:06;;;;;;;20.55;18.38;;;;;;;35.38;14.74;94720.28;4937176;29;20383;-52
2021/10/21 10:13:33;;;;;;;21.95;18.90;;;;;;;35.39;14.72;94710.91;4949222;29;20055;-51
2021/10/21 10:16:00;;;;;;;19.88;17.98;;;;;;;35.37;14.24;94714.06;4956114;29;20051;-52
2021/10/21 10:18:29;;;;;;;27.65;17.45;;;;;;;35.75;14.43;94710.50;4956576;29;20058;-50
2021/10/21 10:21:04;;;;;;;19.85;17.15;;;;;;;35.37;14.33;94697.78;4955571;29;20046;-52
2021/10/21 10:23:33;;;;;;;20.25;18.33;;;;;;;35.38;14.69;94696.56;4955086;28;20458;-53
2021/10/21 10:26:00;;;;;;;21.67;19.58;;;;;;;35.67;15.00;94692.94;4954705;29;20058;-48
2021/10/21 10:28:53;;;;;;;20.88;18.88;;;;;;;35.70;14.57;94686.59;4956089;29;20533;-52
2021/10/21 10:31:45;;;;;;;20.33;18.20;;;;;;;36.28;14.27;94686.91;4955971;29;20063;-53
2021/10/21 10:34:30;;;;;;;;;;;;;;;35.71;14.67;94674.53;4955571;28;20745;-55
2021/10/21 10:37:19;;;;;;;22.65;20.27;;;;;;;35.82;14.14;94666.75;4956148;29;19926;-49
2021/10/21 10:39:50;;;;;;;24.83;21.73;;;;;;;36.25;14.05;94670.69;4955954;29;20050;-51
2021/10/21 10:42:33;;;;;;;21.45;17.83;;;;;;;36.80;14.04;94671.03;4951257;29;20055;-52
2021/10/21 10:45:01;;;;;;;18.75;16.50;;;;;;;35.99;14.39;94668.13;4956073;29;20054;-50
2021/10/21 10:47:49;;;;;;;18.35;16.27;;;;;;;36.28;13.98;94653.47;4955944;29;20051;-50
2021/10/21 10:50:21;;;;;;;17.92;16.15;;;;;;;35.82;14.20;94661.31;4955722;29;20074;-51
2021/10/21 10:52:59;;;;;;;19.90;15.43;;;;;;;35.96;14.05;94649.97;4955261;29;20050;-52
2021/10/21 10:55:41;;;;;;;17.77;14.82;;;;;;;35.86;14.32;94653.06;4954817;28;20055;-49
2021/10/21 10:58:16;;;;;;;17.95;16.15;;;;;;;35.45;14.50;94642.00;4955168;29;20051;-50
2021/10/21 11:00:52;;;;;;;17.90;16.17;;;;;;;35.66;14.27;94637.03;4937048;29;20051;-52
2021/10/21 11:03:33;;;;;;;16.88;15.18;;;;;;;35.62;14.17;94630.94;4944154;29;20055;-55
2021/10/21 11:06:14;;;;;;;16.58;14.73;;;;;;;35.68;14.34;94629.19;4955223;29;20450;-50
2021/10/21 11:08:53;;;;;;;18.20;14.50;;;;;;;35.28;14.56;94627.03;4955587;29;20047;-48
2021/10/21 11:11:51;;;;;;;18.73;14.15;;;;;;;35.31;14.74;94628.84;4955374;29;20055;-49
2021/10/21 11:14:39;;;;;;;16.38;14.68;;;;;;;35.49;14.03;94623.63;4954709;29;20370;-51
2021/10/21 11:17:09;;;;;;;18.02;14.10;;;;;;;35.26;14.57;94621.25;4955203;29;20046;-52
2021/10/21 11:22:18;;;;;;;17.52;13.85;;;;;;;35.68;14.26;94602.00;4955329;29;20043;-52
2021/10/21 11:27:24;;;;;;;15.90;13.50;;;;;;;35.24;14.54;94599.22;4954926;29;20466;-53
2021/10/21 11:29:53;;;;;;;15.65;12.90;;;;;;;35.30;14.53;94604.84;4954913;29;20505;-53
2021/10/21 11:32:21;;;;;;;17.77;12.90;;;;;;;35.40;14.31;94592.91;4953490;29;20047;-55